Time;durP1;ratioP1;P1;durP2;ratioP2;P2;SDS_P1;SDS_P2;PMS_P1;PMS_P2;Temp;Humidity;BMP_temperature;BMP_pressure;BME280_temperature;BME280_humidity;BME280_pressure;Samples;Min_cycle;Max_cycle;Signal;HPM_P1;HPM_P2
2022/03/31 00:02:05;;;;;;;3.07;2.87;;;1.70;99.90;;;;;;5036024;28;20207;-61
2022/03/31 00:04:30;;;;;;;3.43;3.23;;;1.80;99.90;;;;;;5035973;28;20168;-64
2022/03/31 00:06:56;;;;;;;3.33;2.80;;;1.70;99.90;;;;;;5035968;28;20186;-63
2022/03/31 00:09:21;;;;;;;3.57;3.27;;;1.60;99.90;;;;;;5034373;28;20201;-63
2022/03/31 00:11:47;;;;;;;4.30;4.00;;;1.60;99.90;;;;;;5035895;28;20513;-64
2022/03/31 00:14:12;;;;;;;4.17;3.87;;;1.70;99.90;;;;;;5035876;28;20171;-61
2022/03/31 00:16:38;;;;;;;3.50;3.30;;;1.70;99.90;;;;;;5035906;28;20182;-60
2022/03/31 00:19:04;;;;;;;5.80;3.90;;;1.80;99.90;;;;;;5035324;28;20167;-64
2022/03/31 00:21:30;;;;;;;4.50;3.70;;;1.90;99.90;;;;;;5035632;28;20533;-64
2022/03/31 00:23:55;;;;;;;4.10;3.80;;;1.90;99.90;;;;;;5035851;28;20394;-60
2022/03/31 00:26:21;;;;;;;4.10;3.80;;;1.90;99.90;;;;;;5035664;28;20171;-60
2022/03/31 00:28:46;;;;;;;3.87;3.57;;;1.90;99.90;;;;;;5034937;28;20164;-63
2022/03/31 00:31:12;;;;;;;3.90;3.70;;;1.90;99.90;;;;;;5035412;28;20293;-60
2022/03/31 00:33:38;;;;;;;4.27;3.90;;;1.90;99.90;;;;;;5035543;28;20171;-63
2022/03/31 00:36:03;;;;;;;8.60;4.03;;;1.90;99.90;;;;;;5035467;28;20632;-60
2022/03/31 00:38:29;;;;;;;3.40;3.10;;;2.00;99.90;;;;;;5034798;28;20186;-62
2022/03/31 00:40:55;;;;;;;5.20;4.80;;;2.00;99.90;;;;;;5035254;28;20501;-60
2022/03/31 00:43:20;;;;;;;5.30;3.70;;;2.00;99.90;;;;;;5035249;28;20183;-60
2022/03/31 00:45:51;;;;;;;4.33;4.03;;;1.90;99.90;;;;;;5035399;28;20168;-60
2022/03/31 00:48:19;;;;;;;4.03;3.73;;;1.90;99.90;;;;;;5035333;28;20594;-63
2022/03/31 00:50:45;;;;;;;14.20;3.63;;;1.70;99.90;;;;;;5034375;28;20409;-61
2022/03/31 00:53:11;;;;;;;3.60;3.30;;;1.70;99.90;;;;;;5035084;28;20505;-64
2022/03/31 00:55:37;;;;;;;4.43;3.87;;;1.80;99.90;;;;;;5034170;28;20431;-61
2022/03/31 00:58:05;;;;;;;5.00;4.30;;;1.80;99.90;;;;;;5035296;28;20175;-64
2022/03/31 01:00:31;;;;;;;4.67;3.63;;;1.70;99.90;;;;;;5034215;28;20406;-64
2022/03/31 01:02:56;;;;;;;3.33;3.10;;;1.70;99.90;;;;;;5034257;28;20972;-64
2022/03/31 01:05:22;;;;;;;4.07;3.67;;;1.60;99.90;;;;;;5035029;28;20164;-63
2022/03/31 01:07:48;;;;;;;4.03;3.70;;;1.60;99.90;;;;;;5034791;28;20541;-61
2022/03/31 01:10:14;;;;;;;5.27;4.77;;;1.60;99.90;;;;;;5034406;28;20418;-64
2022/03/31 01:12:40;;;;;;;3.77;3.50;;;1.60;99.90;;;;;;5034756;28;20714;-62
2022/03/31 01:15:07;;;;;;;5.10;3.53;;;1.50;99.90;;;;;;5034804;28;20402;-61
2022/03/31 01:17:34;;;;;;;4.20;3.80;;;1.60;99.90;;;;;;5034838;28;20407;-64
2022/03/31 01:20:00;;;;;;;3.67;3.47;;;1.60;99.90;;;;;;5034113;28;20403;-61
2022/03/31 01:22:29;;;;;;;5.47;4.60;;;1.50;99.90;;;;;;5034577;28;20678;-61
2022/03/31 01:24:56;;;;;;;3.28;2.97;;;1.50;99.90;;;;;;5034533;28;20395;-68
2022/03/31 01:27:23;;;;;;;6.40;4.70;;;1.40;99.90;;;;;;5034542;28;20653;-65
2022/03/31 01:29:49;;;;;;;5.10;3.80;;;1.40;99.90;;;;;;5033760;28;20394;-65
2022/03/31 01:32:14;;;;;;;4.43;4.00;;;1.40;99.90;;;;;;5034336;28;20433;-62
2022/03/31 01:34:40;;;;;;;4.47;4.07;;;1.50;99.90;;;;;;5034444;28;20147;-61
2022/03/31 01:37:07;;;;;;;4.67;3.80;;;1.40;99.90;;;;;;5034251;28;20403;-65
2022/03/31 01:39:32;;;;;;;4.17;3.70;;;1.50;99.90;;;;;;5033674;28;20595;-64
2022/03/31 01:41:58;;;;;;;7.03;4.23;;;1.40;99.90;;;;;;5034189;28;20538;-64
2022/03/31 01:44:24;;;;;;;5.33;3.27;;;1.40;99.90;;;;;;5032992;28;20583;-65
2022/03/31 01:46:50;;;;;;;4.17;3.77;;;1.30;99.90;;;;;;5034119;28;20575;-65
2022/03/31 01:49:15;;;;;;;3.70;3.23;;;1.30;99.90;;;;;;5032115;28;20167;-65
2022/03/31 01:51:41;;;;;;;3.30;3.07;;;1.30;99.90;;;;;;5033952;28;20184;-65
2022/03/31 01:54:06;;;;;;;4.03;3.63;;;1.30;99.90;;;;;;5034261;28;20667;-65
2022/03/31 01:56:32;;;;;;;3.70;3.40;;;1.30;99.90;;;;;;5034043;28;20248;-65
2022/03/31 01:58:58;;;;;;;3.43;3.23;;;1.30;99.90;;;;;;5033409;28;20182;-65
2022/03/31 02:01:24;;;;;;;7.23;3.60;;;1.40;99.90;;;;;;5032549;28;20210;-65
2022/03/31 02:03:49;;;;;;;6.73;4.10;;;1.40;99.90;;;;;;5034017;28;20175;-62
2022/03/31 02:06:15;;;;;;;3.97;3.67;;;1.30;99.90;;;;;;5034055;28;20206;-65
2022/03/31 02:08:40;;;;;;;4.17;3.77;;;1.20;99.90;;;;;;5033349;28;20664;-62
2022/03/31 02:11:07;;;;;;;5.57;3.87;;;1.30;99.90;;;;;;5033785;28;20172;-62
2022/03/31 02:13:34;;;;;;;4.03;3.07;;;1.40;99.90;;;;;;5033620;28;20188;-65
2022/03/31 02:15:59;;;;;;;18.30;4.80;;;1.30;99.90;;;;;;5033776;28;20390;-62
2022/03/31 02:18:25;;;;;;;4.67;3.50;;;1.30;99.90;;;;;;5033664;28;20437;-63
2022/03/31 02:20:51;;;;;;;3.80;3.10;;;1.30;99.90;;;;;;5033153;28;20628;-62
2022/03/31 02:23:17;;;;;;;4.20;3.90;;;1.40;99.90;;;;;;5033468;28;20680;-69
2022/03/31 02:25:43;;;;;;;2.90;2.70;;;1.30;99.90;;;;;;5032305;28;20772;-68
2022/03/31 02:28:09;;;;;;;6.13;3.40;;;1.40;99.90;;;;;;5033550;28;20460;-62
2022/03/31 02:30:35;;;;;;;4.17;3.87;;;1.40;99.90;;;;;;5032707;28;20409;-64
2022/03/31 02:33:03;;;;;;;4.43;2.70;;;1.30;99.90;;;;;;5033467;28;20418;-62
2022/03/31 02:35:29;;;;;;;3.67;3.37;;;1.20;99.90;;;;;;5033299;28;20167;-66
2022/03/31 02:37:54;;;;;;;3.70;3.50;;;1.20;99.90;;;;;;5033409;28;20489;-65
2022/03/31 02:40:20;;;;;;;6.07;4.30;;;1.10;99.90;;;;;;5032823;28;20258;-67
2022/03/31 02:42:46;;;;;;;3.47;3.13;;;1.10;99.90;;;;;;5033333;28;20199;-67
2022/03/31 02:45:12;;;;;;;4.43;4.13;;;1.20;99.90;;;;;;5033245;28;20439;-67
2022/03/31 02:47:38;;;;;;;3.50;3.30;;;1.10;99.90;;;;;;5033246;28;20402;-69
2022/03/31 02:50:06;;;;;;;4.33;3.77;;;1.00;99.90;;;;;;5032626;28;20448;-68
2022/03/31 02:55:24;;;;;;;4.20;3.92;;;1.00;99.90;;;;;;5033278;28;20192;-68
2022/03/31 02:55:28;;;;;;;2.95;2.70;;;1.10;99.90;;;;;;5033172;28;20271;-65
2022/03/31 02:57:55;;;;;;;4.50;4.10;;;1.10;99.90;;;;;;5033049;28;20173;-68
2022/03/31 03:00:21;;;;;;;3.60;3.35;;;1.20;99.90;;;;;;5032611;28;20176;-62
2022/03/31 03:02:47;;;;;;;3.57;3.33;;;1.20;99.90;;;;;;5033209;28;20203;-62
2022/03/31 03:05:14;;;;;;;2.97;2.77;;;1.30;99.90;;;;;;5033367;28;20390;-62
2022/03/31 03:07:40;;;;;;;4.00;3.70;;;1.30;99.90;;;;;;5033111;28;20425;-66
2022/03/31 03:10:05;;;;;;;3.73;3.53;;;1.30;99.90;;;;;;5032383;28;20399;-63
2022/03/31 03:12:32;;;;;;;3.67;3.43;;;1.20;99.90;;;;;;5033170;28;20198;-62
2022/03/31 03:14:58;;;;;;;7.68;3.90;;;1.10;99.90;;;;;;5033199;28;20402;-65
2022/03/31 03:17:23;;;;;;;4.07;3.77;;;1.20;99.90;;;;;;5033264;28;20168;-62
2022/03/31 03:19:49;;;;;;;6.23;5.10;;;1.20;99.90;;;;;;5032265;28;20575;-69
2022/03/31 03:22:15;;;;;;;4.13;3.83;;;1.20;99.90;;;;;;5032978;28;20572;-68
2022/03/31 03:24:41;;;;;;;6.37;3.10;;;1.20;99.90;;;;;;5034116;28;20184;-68
2022/03/31 03:27:06;;;;;;;5.10;3.83;;;1.10;99.90;;;;;;5036925;28;20207;-66
2022/03/31 03:29:32;;;;;;;3.90;3.70;;;1.10;99.90;;;;;;5036157;28;20536;-65
2022/03/31 03:31:58;;;;;;;3.60;3.30;;;1.10;99.90;;;;;;5036575;28;20675;-66
2022/03/31 03:34:24;;;;;;;3.67;3.37;;;1.20;99.90;;;;;;5036717;28;20183;-62
2022/03/31 03:36:49;;;;;;;4.60;4.20;;;1.20;99.90;;;;;;5036604;28;20180;-65
2022/03/31 03:39:15;;;;;;;4.10;3.77;;;1.20;99.90;;;;;;5035999;28;20172;-67
2022/03/31 03:41:41;;;;;;;4.30;3.93;;;1.20;99.90;;;;;;5036495;28;20207;-63
2022/03/31 03:44:07;;;;;;;4.00;3.70;;;1.20;99.90;;;;;;5036363;28;20418;-63
2022/03/31 03:46:32;;;;;;;3.70;3.37;;;1.30;99.90;;;;;;5036863;28;20172;-62
2022/03/31 03:48:58;;;;;;;5.10;3.50;;;1.30;99.90;;;;;;5035873;28;20249;-63
2022/03/31 03:51:24;;;;;;;4.50;4.20;;;1.30;99.90;;;;;;5036332;28;20198;-62
2022/03/31 03:53:51;;;;;;;3.40;3.10;;;1.30;99.90;;;;;;5036334;28;20222;-66
2022/03/31 03:56:17;;;;;;;3.10;2.90;;;1.30;99.90;;;;;;5036098;28;20892;-66
2022/03/31 03:58:43;;;;;;;3.17;2.97;;;1.20;99.90;;;;;;5035720;28;20468;-66
2022/03/31 04:01:09;;;;;;;3.07;2.87;;;1.30;99.90;;;;;;5036263;28;20418;-63
2022/03/31 04:03:35;;;;;;;3.47;3.27;;;1.30;99.90;;;;;;5036125;28;20167;-66
2022/03/31 04:06:01;;;;;;;3.87;3.57;;;1.30;99.90;;;;;;5036105;28;20448;-68
2022/03/31 04:08:27;;;;;;;3.57;3.30;;;1.30;99.90;;;;;;5036000;28;20399;-66
2022/03/31 04:10:53;;;;;;;3.03;2.83;;;1.30;99.90;;;;;;5034750;28;20937;-63
2022/03/31 04:13:19;;;;;;;3.40;3.20;;;1.40;99.90;;;;;;5036049;28;20191;-63
2022/03/31 04:15:44;;;;;;;4.00;3.60;;;1.40;99.90;;;;;;5036088;28;20172;-65
2022/03/31 04:18:10;;;;;;;3.73;3.43;;;1.40;99.90;;;;;;5035803;28;20403;-63
2022/03/31 04:20:36;;;;;;;3.03;2.70;;;1.30;99.90;;;;;;5035211;28;20179;-63
2022/03/31 04:23:02;;;;;;;3.43;3.13;;;1.40;99.90;;;;;;5035693;28;20211;-64
2022/03/31 04:25:28;;;;;;;5.20;3.20;;;1.40;99.90;;;;;;5035868;28;20508;-63
2022/03/31 04:27:54;;;;;;;3.37;3.17;;;1.50;99.90;;;;;;5035736;28;20442;-63
2022/03/31 04:30:21;;;;;;;3.70;3.50;;;1.50;99.90;;;;;;5034987;28;20421;-64
2022/03/31 04:32:47;;;;;;;3.40;3.17;;;1.60;99.90;;;;;;5035520;28;20192;-63
2022/03/31 04:35:14;;;;;;;3.90;3.60;;;1.40;99.90;;;;;;5034257;28;20419;-63
2022/03/31 04:37:40;;;;;;;4.37;3.60;;;1.50;99.90;;;;;;5034157;28;20469;-65
2022/03/31 04:40:08;;;;;;;2.90;2.67;;;1.40;99.90;;;;;;5034871;28;20883;-63
2022/03/31 04:42:35;;;;;;;2.83;2.60;;;1.40;99.90;;;;;;5035159;28;20620;-66
2022/03/31 04:45:02;;;;;;;3.37;2.97;;;1.40;99.90;;;;;;5035467;28;20399;-66
2022/03/31 04:47:29;;;;;;;16.00;3.10;;;1.40;99.90;;;;;;5035269;28;20430;-66
2022/03/31 04:49:54;;;;;;;3.40;3.10;;;1.40;99.90;;;;;;5034574;28;20485;-65
2022/03/31 04:52:20;;;;;;;4.40;4.00;;;1.30;99.90;;;;;;5035014;28;20534;-66
2022/03/31 04:54:46;;;;;;;4.60;4.00;;;1.30;99.90;;;;;;5034964;28;20183;-69
2022/03/31 04:57:13;;;;;;;3.07;2.77;;;1.20;99.90;;;;;;5035253;28;20179;-66
2022/03/31 04:59:40;;;;;;;4.10;3.70;;;1.30;99.90;;;;;;5034537;28;20405;-68
2022/03/31 05:02:06;;;;;;;3.88;3.13;;;1.30;99.90;;;;;;5034843;28;20245;-66
2022/03/31 05:04:32;;;;;;;3.47;3.27;;;1.30;99.90;;;;;;5034922;28;20192;-64
2022/03/31 05:06:58;;;;;;;4.63;3.43;;;1.40;99.90;;;;;;5034776;28;20410;-66
2022/03/31 05:09:24;;;;;;;3.43;3.17;;;1.40;99.90;;;;;;5034393;28;20171;-63
2022/03/31 05:11:49;;;;;;;4.00;3.70;;;1.50;99.90;;;;;;5034740;28;20510;-66
2022/03/31 05:14:15;;;;;;;3.80;3.50;;;1.50;99.90;;;;;;5033923;28;20180;-66
2022/03/31 05:16:41;;;;;;;4.00;3.37;;;1.50;99.90;;;;;;5034845;28;20167;-67
2022/03/31 05:19:06;;;;;;;4.80;3.63;;;1.50;99.90;;;;;;5034108;28;20262;-63
2022/03/31 05:21:32;;;;;;;4.47;3.43;;;1.60;99.90;;;;;;5033550;28;20195;-66
2022/03/31 05:23:58;;;;;;;4.33;3.97;;;1.60;99.90;;;;;;5034703;28;20170;-66
2022/03/31 05:26:23;;;;;;;3.43;3.23;;;1.60;99.90;;;;;;5034786;28;20171;-68
2022/03/31 05:28:49;;;;;;;3.67;3.37;;;1.40;99.90;;;;;;5033869;28;20207;-68
2022/03/31 05:31:15;;;;;;;4.87;2.43;;;1.40;99.90;;;;;;5034471;28;20172;-65
2022/03/31 05:33:40;;;;;;;3.83;3.47;;;1.40;99.90;;;;;;5034472;28;20202;-65
2022/03/31 05:36:06;;;;;;;5.20;2.90;;;1.40;99.90;;;;;;5033428;28;20274;-65
2022/03/31 05:38:32;;;;;;;3.40;3.20;;;1.50;99.90;;;;;;5033689;28;20174;-66
2022/03/31 05:40:58;;;;;;;8.40;2.85;;;1.40;99.90;;;;;;5034182;28;20401;-66
2022/03/31 05:43:23;;;;;;;3.33;3.03;;;1.50;97.00;;;;;;5032867;28;20211;-65
2022/03/31 05:45:49;;;;;;;2.90;2.80;;;1.40;92.90;;;;;;5034359;28;20167;-67
2022/03/31 05:48:15;;;;;;;3.77;3.47;;;1.40;92.90;;;;;;5033516;28;20702;-67
2022/03/31 05:50:41;;;;;;;4.13;3.43;;;1.50;88.60;;;;;;5033387;28;20402;-63
2022/03/31 05:53:06;;;;;;;3.67;3.37;;;1.60;79.90;;;;;;5033942;28;20222;-67
2022/03/31 05:55:32;;;;;;;3.43;3.20;;;1.60;72.40;;;;;;5032725;28;20229;-65
2022/03/31 05:57:58;;;;;;;4.10;3.70;;;1.60;56.70;;;;;;5033958;28;20407;-67
2022/03/31 06:00:24;;;;;;;4.50;3.20;;;1.50;43.10;;;;;;5033302;28;20199;-67
2022/03/31 06:02:52;;;;;;;3.80;3.50;;;1.50;34.10;;;;;;5033709;28;20468;-66
2022/03/31 06:05:19;;;;;;;4.00;3.70;;;1.50;36.70;;;;;;5033703;28;20532;-68
2022/03/31 06:07:46;;;;;;;4.95;2.90;;;1.50;34.30;;;;;;5033722;28;20426;-65
2022/03/31 06:10:12;;;;;;;2.70;2.60;;;1.50;42.60;;;;;;5033372;28;20223;-65
2022/03/31 06:12:39;;;;;;;3.50;3.30;;;1.50;54.00;;;;;;5033879;28;20461;-65
2022/03/31 06:15:06;;;;;;;3.80;3.50;;;1.50;51.30;;;;;;5033841;28;20181;-64
2022/03/31 06:17:33;;;;;;;3.23;2.97;;;1.60;54.80;;;;;;5033767;28;20402;-65
2022/03/31 06:19:58;;;;;;;3.53;3.22;;;1.50;41.60;;;;;;5032991;28;20410;-65
2022/03/31 06:22:24;;;;;;;4.07;3.70;;;1.60;34.30;;;;;;5033758;28;20229;-65
2022/03/31 06:24:50;;;;;;;3.60;3.40;;;1.60;26.60;;;;;;5033702;28;20160;-66
2022/03/31 06:27:16;;;;;;;3.17;2.90;;;1.70;26.00;;;;;;5033604;28;20163;-64
2022/03/31 06:29:45;;;;;;;4.43;4.10;;;1.70;16.50;;;;;;5032672;28;20171;-67
2022/03/31 06:32:12;;;;;;;4.47;4.07;;;1.80;1.00;;;;;;5033443;28;20496;-68
2022/03/31 06:34:38;;;;;;;3.27;3.10;;;1.80;1.00;;;;;;5033725;28;20460;-66
2022/03/31 06:37:04;;;;;;;3.27;3.00;;;1.60;1.00;;;;;;5033495;28;20398;-64
2022/03/31 06:39:29;;;;;;;3.80;3.60;;;1.60;1.00;;;;;;5032671;28;20175;-65
2022/03/31 06:41:55;;;;;;;5.00;2.43;;;1.70;1.00;;;;;;5033234;28;20737;-67
2022/03/31 06:44:21;;;;;;;2.77;2.57;;;1.80;1.00;;;;;;5033437;28;20170;-64
2022/03/31 06:46:47;;;;;;;2.73;2.63;;;1.90;1.00;;;;;;5033319;28;20168;-67
2022/03/31 06:49:13;;;;;;;3.43;3.17;;;1.90;1.00;;;;;;5032747;28;20601;-66
2022/03/31 06:51:38;;;;;;;3.00;2.80;;;1.70;1.00;;;;;;5033070;28;20421;-67
2022/03/31 06:54:04;;;;;;;3.87;2.80;;;1.80;1.00;;;;;;5033396;28;20175;-65
2022/03/31 06:56:31;;;;;;;3.13;2.93;;;1.80;1.00;;;;;;5033215;28;20171;-63
2022/03/31 06:58:58;;;;;;;8.50;2.90;;;1.90;1.00;;;;;;5032755;28;20418;-65
2022/03/31 07:01:25;;;;;;;4.80;3.47;;;2.00;1.00;;;;;;5037036;28;20458;-63
2022/03/31 07:03:51;;;;;;;5.53;3.50;;;2.00;1.00;;;;;;5037075;28;20424;-63
2022/03/31 07:06:18;;;;;;;6.30;5.20;;;2.10;1.00;;;;;;5037174;28;20433;-63
2022/03/31 07:08:44;;;;;;;3.20;2.90;;;2.10;1.00;;;;;;5036620;28;20402;-63
2022/03/31 07:11:10;;;;;;;5.03;3.10;;;2.10;1.00;;;;;;5037175;28;20899;-64
2022/03/31 07:13:36;;;;;;;2.80;2.60;;;2.20;1.00;;;;;;5035839;28;20497;-67
2022/03/31 07:16:02;;;;;;;3.10;2.67;;;2.20;1.00;;;;;;5035695;28;20492;-65
2022/03/31 07:18:28;;;;;;;8.80;3.00;;;2.10;1.00;;;;;;5036716;28;20164;-73
2022/03/31 07:20:53;;;;;;;2.90;2.70;;;2.00;1.00;;;;;;5036957;28;20445;-63
2022/03/31 07:23:21;;;;;;;3.30;3.00;;;2.00;1.00;;;;;;5035525;28;20230;-67
2022/03/31 07:25:47;;;;;;;4.37;3.30;;;2.00;1.00;;;;;;5036871;28;20167;-64
2022/03/31 07:28:14;;;;;;;4.17;3.43;;;2.10;1.00;;;;;;5036843;28;20406;-65
2022/03/31 07:30:39;;;;;;;3.77;2.80;;;2.10;1.00;;;;;;5036094;28;20397;-63
2022/03/31 07:33:05;;;;;;;3.20;3.00;;;2.30;1.00;;;;;;5036655;28;20422;-64
2022/03/31 07:35:33;;;;;;;5.13;3.23;;;2.30;1.00;;;;;;5036805;28;20168;-65
2022/03/31 07:38:03;;;;;;;5.10;2.40;;;2.30;1.00;;;;;;5035328;28;20175;-66
2022/03/31 07:40:29;;;;;;;3.60;3.30;;;2.30;1.00;;;;;;5035969;28;20930;-65
2022/03/31 07:42:55;;;;;;;3.70;3.20;;;2.30;1.00;;;;;;5036470;28;20524;-67
2022/03/31 07:45:22;;;;;;;2.87;2.67;;;2.20;1.00;;;;;;5036485;28;20434;-68
2022/03/31 07:47:48;;;;;;;3.47;3.17;;;2.10;1.00;;;;;;5036420;28;20463;-67
2022/03/31 07:50:16;;;;;;;2.60;2.40;;;2.20;1.00;;;;;;5035737;28;20490;-65
2022/03/31 07:52:43;;;;;;;4.93;3.53;;;2.20;1.00;;;;;;5036258;28;20437;-65
2022/03/31 07:55:11;;;;;;;6.00;2.87;;;2.10;1.00;;;;;;5036328;28;20891;-66
2022/03/31 07:57:38;;;;;;;5.93;3.03;;;2.20;1.00;;;;;;5036146;28;20402;-68
2022/03/31 08:00:06;;;;;;;2.60;2.40;;;2.10;1.00;;;;;;5035518;28;20385;-66
2022/03/31 08:02:31;;;;;;;6.30;2.90;;;2.20;1.00;;;;;;5036042;28;20453;-64
2022/03/31 08:04:57;;;;;;;5.23;2.93;;;2.20;1.00;;;;;;5036168;28;20456;-64
2022/03/31 08:07:22;;;;;;;2.77;2.53;;;2.40;1.00;;;;;;5036018;28;20183;-64
2022/03/31 08:09:48;;;;;;;3.70;3.40;;;2.50;1.00;;;;;;5035222;28;20206;-64
2022/03/31 08:12:14;;;;;;;3.00;2.73;;;2.50;1.00;;;;;;5035305;28;20226;-64
2022/03/31 08:14:39;;;;;;;3.30;2.80;;;2.60;1.00;;;;;;5034941;28;20178;-64
2022/03/31 08:17:05;;;;;;;6.33;2.93;;;2.60;1.00;;;;;;5034694;28;20175;-65
2022/03/31 08:19:32;;;;;;;2.73;2.57;;;2.40;1.00;;;;;;5035125;28;20180;-68
2022/03/31 08:22:01;;;;;;;3.30;3.10;;;2.40;1.00;;;;;;5034543;28;20272;-66
2022/03/31 08:24:27;;;;;;;2.90;2.70;;;2.50;1.00;;;;;;5035791;28;20399;-66
2022/03/31 08:26:53;;;;;;;5.63;3.23;;;2.50;1.00;;;;;;5035745;28;20417;-64
2022/03/31 08:29:19;;;;;;;11.70;3.53;;;2.60;1.00;;;;;;5035168;28;20868;-64
2022/03/31 08:31:45;;;;;;;2.80;2.47;;;2.70;1.00;;;;;;5035713;28;20425;-64
2022/03/31 08:34:10;;;;;;;2.90;2.73;;;2.70;1.00;;;;;;5035635;28;20948;-68
2022/03/31 08:36:37;;;;;;;2.10;2.00;;;2.70;99.90;;;;;;5035395;28;20266;-64
2022/03/31 08:39:04;;;;;;;3.10;2.13;;;2.80;99.90;;;;;;5035023;28;20171;-64
2022/03/31 08:41:30;;;;;;;6.00;4.00;;;2.80;99.90;;;;;;5035281;28;20449;-66
2022/03/31 08:43:56;;;;;;;5.00;2.73;;;2.80;99.90;;;;;;5035521;28;20402;-66
2022/03/31 08:46:23;;;;;;;4.37;3.43;;;2.90;99.90;;;;;;5035334;28;20880;-66
2022/03/31 08:48:49;;;;;;;3.63;2.90;;;2.90;99.90;;;;;;5034689;28;20471;-63
2022/03/31 08:51:15;;;;;;;2.50;2.30;;;2.80;99.90;;;;;;5033949;28;20413;-66
2022/03/31 08:53:41;;;;;;;5.00;2.63;;;2.70;99.90;;;;;;5034202;28;20411;-67
2022/03/31 08:56:10;;;;;;;2.60;2.23;;;2.70;99.90;;;;;;5034084;28;20776;-69
2022/03/31 08:58:35;;;;;;;3.13;2.10;;;2.70;99.90;;;;;;5034399;28;20456;-67
2022/03/31 09:01:01;;;;;;;2.50;2.40;;;2.80;99.90;;;;;;5034930;28;20398;-64
2022/03/31 09:03:37;;;;;;;2.30;2.10;;;2.90;99.90;;;;;;5033713;28;20200;-63
2022/03/31 09:06:09;;;;;;;2.77;2.30;;;3.00;99.90;;;;;;5034911;28;20203;-63
2022/03/31 09:08:35;;;;;;;4.60;2.23;;;3.10;99.90;;;;;;5034181;28;20951;-65
2022/03/31 09:11:03;;;;;;;2.17;2.07;;;3.10;99.90;;;;;;5034725;28;20489;-64
2022/03/31 09:13:38;;;;;;;2.07;1.97;;;3.10;99.90;;;;;;5034862;28;20171;-66
2022/03/31 09:16:13;;;;;;;2.47;1.90;;;3.10;99.90;;;;;;5034282;28;20397;-63
2022/03/31 09:18:39;;;;;;;2.20;2.07;;;3.10;99.90;;;;;;5033560;28;20401;-68
2022/03/31 09:21:08;;;;;;;2.67;2.50;;;3.00;99.90;;;;;;5032809;28;20402;-67
2022/03/31 09:23:45;;;;;;;2.80;2.50;;;2.90;99.90;;;;;;5033707;28;20946;-63
2022/03/31 09:26:14;;;;;;;2.90;2.60;;;2.90;99.90;;;;;;5033094;28;20767;-63
2022/03/31 09:28:41;;;;;;;2.97;2.40;;;2.90;99.90;;;;;;5033457;28;20536;-66
2022/03/31 09:31:10;;;;;;;2.50;2.40;;;3.20;99.90;;;;;;5034022;28;20447;-66
2022/03/31 09:33:38;;;;;;;4.30;2.67;;;3.30;99.90;;;;;;5033818;28;20399;-63
2022/03/31 09:36:06;;;;;;;3.33;2.60;;;3.40;99.90;;;;;;5034188;28;20398;-63
2022/03/31 09:38:36;;;;;;;2.67;2.20;;;3.60;99.90;;;;;;5032357;28;20493;-67
2022/03/31 09:41:03;;;;;;;2.43;2.33;;;3.50;99.90;;;;;;5033645;28;20843;-66
2022/03/31 09:43:40;;;;;;;2.10;1.90;;;3.60;99.90;;;;;;5033952;28;20537;-63
2022/03/31 09:46:26;;;;;;;2.50;2.30;;;3.50;99.90;;;;;;5032409;28;20410;-65
2022/03/31 09:48:53;;;;;;;2.33;2.07;;;3.40;99.90;;;;;;5032775;28;20407;-64
2022/03/31 09:51:20;;;;;;;2.40;2.20;;;3.60;99.90;;;;;;5033994;28;20493;-67
2022/03/31 09:53:52;;;;;;;2.10;2.00;;;3.60;99.90;;;;;;5034093;28;20969;-67
2022/03/31 09:56:24;;;;;;;2.70;2.50;;;3.60;99.90;;;;;;5034033;28;20399;-65
2022/03/31 09:58:51;;;;;;;1.70;1.60;;;3.80;99.90;;;;;;5033335;28;20461;-63
2022/03/31 10:01:18;;;;;;;2.10;2.00;;;4.00;99.90;;;;;;5033719;28;20406;-63
2022/03/31 10:03:43;;;;;;;2.00;1.90;;;4.00;99.90;;;;;;5034050;28;20906;-65
2022/03/31 10:06:09;;;;;;;1.67;1.53;;;4.20;99.90;;;;;;5033810;28;20418;-64
2022/03/31 10:08:42;;;;;;;2.60;2.20;;;4.40;99.90;;;;;;5033292;28;20171;-66
2022/03/31 10:11:09;;;;;;;2.63;2.37;;;4.50;99.90;;;;;;5033535;28;20159;-68
2022/03/31 10:13:42;;;;;;;2.17;2.07;;;4.30;99.90;;;;;;5033734;28;20414;-62
2022/03/31 10:16:13;;;;;;;4.53;1.80;;;4.30;99.90;;;;;;5033703;28;20402;-62
2022/03/31 10:18:46;;;;;;;2.40;2.30;;;4.30;99.90;;;;;;5033208;28;20436;-66
2022/03/31 10:21:12;;;;;;;2.60;2.40;;;4.50;99.90;;;;;;5033443;28;20406;-63
2022/03/31 10:26:33;;;;;;;2.63;2.50;;;4.70;99.90;;;;;;5033762;28;20390;-62
2022/03/31 10:29:02;;;;;;;2.47;2.27;;;4.80;99.90;;;;;;5032962;28;20752;-66
2022/03/31 10:31:42;;;;;;;2.60;2.47;;;5.00;99.90;;;;;;5032204;28;20457;-65
2022/03/31 10:34:09;;;;;;;2.77;2.57;;;5.20;99.90;;;;;;5033400;28;20422;-65
2022/03/31 10:36:38;;;;;;;2.60;2.43;;;5.30;99.90;;;;;;5033551;28;20400;-66
2022/03/31 10:39:06;;;;;;;2.40;2.30;;;5.50;99.90;;;;;;5032848;28;20391;-66
2022/03/31 10:41:38;;;;;;;2.33;2.13;;;5.70;99.90;;;;;;5033200;28;20509;-63
2022/03/31 10:44:24;;;;;;;3.43;2.57;;;5.80;99.90;;;;;;5032415;28;20410;-65
2022/03/31 10:47:08;;;;;;;3.73;2.23;;;5.90;99.90;;;;;;5033167;28;20503;-65
2022/03/31 10:49:34;;;;;;;2.77;2.60;;;5.70;99.90;;;;;;5032572;28;20411;-66
2022/03/31 10:52:17;;;;;;;2.43;2.23;;;5.60;99.90;;;;;;5033342;28;20439;-65
2022/03/31 10:54:43;;;;;;;3.23;2.50;;;5.70;99.90;;;;;;5033286;28;20959;-63
2022/03/31 10:57:15;;;;;;;2.60;2.20;;;5.90;99.90;;;;;;5033302;28;20920;-63
2022/03/31 10:59:44;;;;;;;2.73;2.53;;;6.10;99.90;;;;;;5032420;28;20478;-65
2022/03/31 11:02:21;;;;;;;2.93;2.70;;;6.10;99.90;;;;;;5033200;28;20459;-66
2022/03/31 11:04:48;;;;;;;3.87;2.63;;;5.70;99.90;;;;;;5033304;28;20492;-66
2022/03/31 11:07:25;;;;;;;2.10;2.00;;;5.90;99.90;;;;;;5033068;28;20421;-63
2022/03/31 11:10:04;;;;;;;4.00;2.67;;;6.20;99.90;;;;;;5032383;28;20420;-65
2022/03/31 11:12:31;;;;;;;2.80;2.60;;;6.50;99.90;;;;;;5032978;28;20445;-66
2022/03/31 11:15:00;;;;;;;2.23;2.03;;;6.60;99.90;;;;;;5033090;28;20824;-62
2022/03/31 11:17:28;;;;;;;2.43;2.23;;;6.30;99.90;;;;;;5033046;28;20405;-65
2022/03/31 11:19:55;;;;;;;2.13;1.97;;;6.50;99.90;;;;;;5032299;28;20408;-65
2022/03/31 11:22:27;;;;;;;2.53;2.33;;;6.40;99.90;;;;;;5032915;28;20456;-66
2022/03/31 11:25:08;;;;;;;2.70;1.93;;;6.20;99.90;;;;;;5033171;28;20393;-65
2022/03/31 11:27:38;;;;;;;2.27;1.97;;;5.80;99.90;;;;;;5033164;28;20387;-63
2022/03/31 11:30:10;;;;;;;10.03;2.60;;;6.00;99.90;;;;;;5032249;28;20398;-66
2022/03/31 11:32:38;;;;;;;2.40;2.20;;;6.20;99.90;;;;;;5032944;28;20410;-62
2022/03/31 11:35:09;;;;;;;2.03;1.93;;;6.40;99.90;;;;;;5033151;28;20720;-62
2022/03/31 11:37:35;;;;;;;3.37;2.07;;;6.60;99.90;;;;;;5033021;28;20405;-63
2022/03/31 11:40:01;;;;;;;2.30;2.10;;;6.40;99.90;;;;;;5032075;28;20463;-62
2022/03/31 11:42:27;;;;;;;2.00;1.90;;;6.20;99.90;;;;;;5032710;28;20273;-66
2022/03/31 11:44:52;;;;;;;2.40;2.23;;;6.50;99.90;;;;;;5032868;28;20402;-66
2022/03/31 11:47:20;;;;;;;6.93;2.60;;;6.40;99.90;;;;;;5035278;28;20577;-62
2022/03/31 11:50:00;;;;;;;2.37;2.27;;;6.50;99.90;;;;;;5035807;28;20175;-65
2022/03/31 11:52:31;;;;;;;2.10;2.00;;;6.30;99.90;;;;;;5036553;28;20436;-62
2022/03/31 11:55:00;;;;;;;2.10;2.00;;;6.40;99.90;;;;;;5036474;28;20405;-62
2022/03/31 11:57:28;;;;;;;2.40;2.20;;;6.50;99.90;;;;;;5036308;28;20406;-62
2022/03/31 11:59:54;;;;;;;5.63;2.47;;;6.30;99.90;;;;;;5035624;28;20392;-66
2022/03/31 12:02:21;;;;;;;2.50;2.30;;;5.90;99.90;;;;;;5035948;28;20519;-62
2022/03/31 12:04:48;;;;;;;3.17;2.07;;;5.90;99.90;;;;;;5034923;28;20421;-65
2022/03/31 12:07:18;;;;;;;2.20;2.00;;;6.10;99.90;;;;;;5036217;28;20437;-62
2022/03/31 12:09:45;;;;;;;4.40;2.00;;;5.90;99.90;;;;;;5035348;28;20406;-66
2022/03/31 12:12:12;;;;;;;5.17;2.53;;;6.10;99.90;;;;;;5035861;28;20424;-63
2022/03/31 12:14:39;;;;;;;3.47;2.53;;;6.30;99.90;;;;;;5036154;28;20905;-62
2022/03/31 12:17:06;;;;;;;6.30;2.30;;;6.60;99.90;;;;;;5035870;28;20508;-66
2022/03/31 12:19:39;;;;;;;2.27;2.03;;;6.70;99.90;;;;;;5035293;28;20416;-66
2022/03/31 12:22:06;;;;;;;2.10;2.00;;;6.90;99.90;;;;;;5035646;28;20453;-62
2022/03/31 12:24:32;;;;;;;6.97;2.30;;;6.90;99.90;;;;;;5034681;28;20409;-62
2022/03/31 12:27:06;;;;;;;2.63;2.43;;;6.50;99.90;;;;;;5035757;28;20398;-66
2022/03/31 12:29:33;;;;;;;2.37;2.17;;;6.50;99.90;;;;;;5035278;28;20406;-66
2022/03/31 12:32:10;;;;;;;4.53;3.20;;;6.90;99.90;;;;;;5035497;28;20433;-66
2022/03/31 12:34:39;;;;;;;2.60;2.40;;;7.00;99.90;;;;;;5035672;28;20402;-62
2022/03/31 12:37:06;;;;;;;2.43;2.23;;;7.00;99.90;;;;;;5035700;28;20398;-62
2022/03/31 12:39:43;;;;;;;4.97;2.57;;;6.70;99.90;;;;;;5033587;28;20875;-62
2022/03/31 12:42:10;;;;;;;2.17;2.07;;;6.60;99.90;;;;;;5035323;28;20964;-62
2022/03/31 12:44:41;;;;;;;5.83;2.40;;;6.60;99.90;;;;;;5035478;28;20397;-62
2022/03/31 12:47:09;;;;;;;2.23;2.13;;;6.60;99.90;;;;;;5035500;28;20398;-65
2022/03/31 12:49:40;;;;;;;2.10;1.90;;;6.90;99.90;;;;;;5033533;28;20468;-62
2022/03/31 12:52:19;;;;;;;2.07;1.90;;;7.20;99.90;;;;;;5035306;28;20429;-66
2022/03/31 12:54:51;;;;;;;2.23;2.13;;;7.60;99.90;;;;;;5035242;28;20402;-62
2022/03/31 12:57:24;;;;;;;3.63;1.90;;;7.60;99.90;;;;;;5032985;28;20821;-62
2022/03/31 13:00:19;;;;;;;2.33;1.93;;;7.80;99.90;;;;;;5034449;28;20485;-62
2022/03/31 13:02:45;;;;;;;1.93;1.83;;;8.30;99.90;;;;;;5038639;28;20465;-66